Time;durP1;ratioP1;P1;durP2;ratioP2;P2;SDS_P1;SDS_P2;PMS_P1;PMS_P2;Temp;Humidity;BMP_temperature;BMP_pressure;BME280_temperature;BME280_humidity;BME280_pressure;Samples;Min_cycle;Max_cycle;Signal;HPM_P1;HPM_P2
2022/07/19 03:46:01;;;;;;;1.67;1.58;;;;;;;17.26;62.02;101041.34;5595642;27;20179;-88
2022/07/19 03:49:04;;;;;;;1.62;1.52;;;;;;;17.23;62.18;101039.03;5364187;33;33443;-87
2022/07/19 03:52:06;;;;;;;2.70;1.65;;;;;;;17.28;62.27;101047.37;5366337;33;33596;-87
2022/07/19 03:55:09;;;;;;;2.00;1.45;;;;;;;17.33;62.39;101046.78;5364275;33;33402;-87
2022/07/19 03:58:12;;;;;;;1.75;1.40;;;;;;;17.37;60.85;101051.59;5363167;33;34825;-87
2022/07/19 04:01:16;;;;;;;3.05;1.73;;;;;;;17.45;60.72;101051.41;5364241;33;34917;-87
2022/07/19 04:04:25;;;;;;;1.75;1.40;;;;;;;17.59;60.13;101062.34;5362330;33;33460;-86
2022/07/19 04:07:27;;;;;;;1.45;1.35;;;;;;;17.66;60.27;101063.16;5362273;33;33286;-87
2022/07/19 04:10:30;;;;;;;2.15;1.50;;;;;;;17.75;59.83;101059.19;5362538;33;32961;-87
2022/07/19 04:13:34;;;;;;;1.90;1.27;;;;;;;17.84;59.30;101059.84;5362022;33;33497;-87
2022/07/19 04:16:37;;;;;;;1.48;1.37;;;;;;;17.90;58.31;101062.59;5344459;33;34862;-87
2022/07/19 04:19:40;;;;;;;1.98;1.50;;;;;;;18.02;57.83;101064.69;5331224;33;32536;-89
2022/07/19 04:22:43;;;;;;;2.22;1.08;;;;;;;18.04;56.88;101066.16;5344375;33;33092;-90
2022/07/19 04:25:46;;;;;;;2.22;1.40;;;;;;;18.14;56.15;101065.75;5331366;33;32225;-90
2022/07/19 04:28:49;;;;;;;5.53;1.40;;;;;;;18.23;55.59;101072.62;5345157;33;33797;-90
2022/07/19 04:31:52;;;;;;;1.40;1.30;;;;;;;18.31;55.12;101077.87;5344695;33;33217;-89
2022/07/19 04:34:55;;;;;;;1.60;1.50;;;;;;;18.45;54.90;101075.94;5347816;33;34621;-88
2022/07/19 04:37:58;;;;;;;3.65;1.50;;;;;;;18.52;54.63;101079.53;5348676;33;32485;-89
2022/07/19 04:41:01;;;;;;;2.72;1.30;;;;;;;18.62;54.09;101073.59;5363313;33;33584;-88
2022/07/19 04:44:04;;;;;;;1.15;1.05;;;;;;;18.71;53.18;101072.31;5361697;33;33107;-88
2022/07/19 04:47:07;;;;;;;3.42;1.50;;;;;;;18.83;51.65;101067.06;5316652;33;33799;-88
2022/07/19 04:50:09;;;;;;;1.52;1.42;;;;;;;18.92;51.02;101068.50;5318375;33;33323;-88
2022/07/19 04:53:12;;;;;;;1.05;0.95;;;;;;;19.03;50.86;101065.09;5308476;33;33758;-88
2022/07/19 04:56:15;;;;;;;1.50;1.35;;;;;;;19.13;50.40;101063.78;5309383;33;35073;-88
2022/07/19 04:59:18;;;;;;;1.10;1.00;;;;;;;19.23;49.45;101062.28;5324732;33;34334;-88
2022/07/19 05:02:21;;;;;;;2.42;1.15;;;;;;;19.37;48.48;101057.59;5326426;33;33584;-88
2022/07/19 05:05:24;;;;;;;1.40;1.30;;;;;;;19.54;48.13;101062.50;5326735;33;32917;-88
2022/07/19 05:08:27;;;;;;;1.67;1.55;;;;;;;19.66;48.03;101061.63;5314444;33;32109;-87
2022/07/19 05:11:30;;;;;;;2.65;1.20;;;;;;;19.87;47.47;101063.16;5328141;33;33302;-87
2022/07/19 05:14:33;;;;;;;4.05;1.40;;;;;;;20.05;46.56;101070.56;5328385;33;33523;-87
2022/07/19 05:17:36;;;;;;;3.62;1.40;;;;;;;20.20;46.74;101069.38;5326366;33;33561;-87
2022/07/19 05:20:39;;;;;;;1.42;1.33;;;;;;;20.32;45.96;101065.66;5326807;33;33090;-88
2022/07/19 05:23:42;;;;;;;2.25;1.08;;;;;;;20.49;45.55;101065.09;5326282;33;33810;-87
2022/07/19 05:26:44;;;;;;;2.30;1.62;;;;;;;20.60;44.72;101067.94;5328135;33;33545;-87
2022/07/19 05:29:47;;;;;;;2.10;1.35;;;;;;;20.76;44.54;101069.22;5326848;33;33691;-86
2022/07/19 05:32:50;;;;;;;1.90;1.55;;;;;;;20.83;44.05;101069.19;5327850;33;33505;-87
2022/07/19 05:35:53;;;;;;;2.35;1.40;;;;;;;21.04;43.91;101055.00;5312964;33;31809;-87
2022/07/19 05:38:56;;;;;;;4.40;1.48;;;;;;;21.21;43.27;101062.59;5312150;33;33282;-87
2022/07/19 05:41:58;;;;;;;1.75;1.45;;;;;;;21.34;42.93;101067.03;5326042;33;34314;-87
2022/07/19 05:45:01;;;;;;;2.35;1.33;;;;;;;21.36;41.24;101065.78;5331851;33;34491;-87
2022/07/19 05:48:05;;;;;;;3.33;1.60;;;;;;;21.35;40.58;101061.31;5343858;33;34881;-86
2022/07/19 05:51:08;;;;;;;4.43;1.60;;;;;;;21.47;40.36;101055.94;5344048;33;34267;-86
2022/07/19 05:54:10;;;;;;;6.57;1.90;;;;;;;21.59;39.97;101059.53;5347278;33;33133;-86
2022/07/19 05:57:13;;;;;;;3.20;1.50;;;;;;;21.73;39.50;101057.41;5350231;33;33528;-86
2022/07/19 06:00:16;;;;;;;2.50;1.25;;;;;;;21.80;39.41;101058.16;5343779;33;33090;-87
2022/07/19 06:03:19;;;;;;;1.65;1.40;;;;;;;21.81;39.57;101053.50;5330745;33;32869;-86
2022/07/19 06:06:23;;;;;;;1.42;1.23;;;;;;;21.90;39.69;101058.38;5344550;33;34261;-87
2022/07/19 06:09:26;;;;;;;3.45;1.40;;;;;;;22.14;39.61;101053.78;5344246;33;33919;-87
2022/07/19 06:12:28;;;;;;;3.62;1.48;;;;;;;22.39;39.64;101056.28;5343682;33;34527;-87
2022/07/19 06:15:31;;;;;;;6.97;1.45;;;;;;;22.52;38.92;101057.09;5340859;33;34192;-87
2022/07/19 06:18:35;;;;;;;1.95;1.30;;;;;;;22.65;38.78;101067.84;5354836;33;36389;-87
2022/07/19 06:21:38;;;;;;;2.35;1.70;;;;;;;22.70;38.40;101065.22;5353057;33;34058;-86
2022/07/19 06:24:41;;;;;;;5.12;1.45;;;;;;;22.71;38.53;101061.38;5344402;33;33589;-87
2022/07/19 06:27:45;;;;;;;6.20;1.60;;;;;;;22.92;38.54;101059.91;5343992;33;33453;-86
2022/07/19 06:30:48;;;;;;;11.07;2.12;;;;;;;23.09;38.54;101060.84;5341533;33;33525;-86
2022/07/19 06:33:51;;;;;;;2.67;1.20;;;;;;;23.26;38.90;101060.91;5314620;33;33732;-87
2022/07/19 06:36:54;;;;;;;1.45;1.30;;;;;;;23.30;36.67;101067.56;5337819;33;32369;-87
2022/07/19 06:39:57;;;;;;;1.98;1.25;;;;;;;23.47;35.93;101061.28;5345919;33;32075;-87
2022/07/19 06:42:59;;;;;;;1.62;1.50;;;;;;;23.47;35.59;101064.84;5360241;33;34896;-86
2022/07/19 06:46:04;;;;;;;7.65;1.85;;;;;;;23.53;35.41;101063.03;5361492;33;34898;-86
2022/07/19 06:49:06;;;;;;;2.10;1.37;;;;;;;23.82;35.76;101055.59;5361577;33;35048;-86
2022/07/19 06:52:09;;;;;;;10.10;3.33;;;;;;;23.86;35.47;101055.94;5360232;33;34792;-87
2022/07/19 06:55:16;;;;;;;4.40;1.80;;;;;;;24.05;35.88;101042.78;5333854;33;32967;-91
2022/07/19 06:58:19;;;;;;;17.05;3.00;;;;;;;24.24;34.88;101037.81;5343920;33;34308;-87
2022/07/19 07:01:22;;;;;;;1.92;1.50;;;;;;;24.45;34.52;101042.53;5343262;33;35033;-87
2022/07/19 07:04:25;;;;;;;2.60;1.50;;;;;;;24.37;35.23;101032.78;5342105;33;33447;-87
2022/07/19 07:07:41;;;;;;;2.37;1.45;;;;;;;24.53;34.01;101039.38;5330353;33;32599;-86
2022/07/19 07:10:44;;;;;;;1.50;1.35;;;;;;;24.61;33.96;101040.84;5342976;33;33089;-87
2022/07/19 07:13:46;;;;;;;3.22;1.45;;;;;;;24.94;33.54;101036.28;5343314;33;33823;-87
2022/07/19 07:16:49;;;;;;;2.55;1.30;;;;;;;25.07;33.42;101045.00;5342961;33;33150;-86
2022/07/19 07:19:52;;;;;;;5.68;1.58;;;;;;;25.26;32.90;101031.72;5343080;33;34413;-86
2022/07/19 07:22:55;;;;;;;2.42;1.27;;;;;;;25.49;31.51;101029.75;5330082;33;32297;-86
2022/07/19 07:25:58;;;;;;;5.95;1.85;;;;;;;25.51;32.05;101028.41;5345944;33;33433;-86
2022/07/19 07:29:01;;;;;;;3.55;1.55;;;;;;;25.79;31.96;101026.41;5329134;33;32791;-86
2022/07/19 07:32:04;;;;;;;7.25;1.50;;;;;;;25.92;30.76;101026.00;5344589;33;33931;-85
2022/07/19 07:35:08;;;;;;;2.70;1.40;;;;;;;26.17;30.19;101028.09;5332379;33;32062;-87
2022/07/19 07:38:10;;;;;;;6.10;1.30;;;;;;;26.31;28.97;101019.38;5343725;33;33398;-86
2022/07/19 07:41:13;;;;;;;3.00;1.17;;;;;;;26.44;29.18;101022.50;5343041;33;33465;-86
2022/07/19 07:44:36;;;;;;;3.20;1.12;;;;;;;26.53;29.21;101017.31;5329528;33;33878;-86
2022/07/19 07:47:39;;;;;;;2.35;1.27;;;;;;;26.59;28.79;101019.00;5346025;33;33509;-86
2022/07/19 07:50:42;;;;;;;4.53;1.80;;;;;;;26.74;28.65;101020.16;5344900;33;33395;-86
2022/07/19 07:53:44;;;;;;;7.30;2.10;;;;;;;27.03;28.88;101017.78;5341484;33;34302;-87
2022/07/19 07:56:48;;;;;;;1.90;1.70;;;;;;;27.26;28.48;101011.78;5342652;33;33435;-86
2022/07/19 07:59:51;;;;;;;4.22;1.60;;;;;;;27.51;27.57;101004.62;5341375;33;31719;-86
2022/07/19 08:02:53;;;;;;;2.85;1.87;;;;;;;27.54;27.22;101015.94;5341325;33;34243;-86
2022/07/19 08:05:57;;;;;;;3.10;1.35;;;;;;;27.58;27.06;101008.78;5333312;33;32210;-86
2022/07/19 08:09:00;;;;;;;11.23;1.90;;;;;;;27.72;26.60;101009.03;5344177;33;33127;-86
2022/07/19 08:12:03;;;;;;;4.25;1.92;;;;;;;27.97;26.69;101007.41;5344977;33;34311;-86
2022/07/19 08:15:06;;;;;;;2.65;1.60;;;;;;;28.16;26.19;101005.69;5345799;33;33760;-86
2022/07/19 08:18:09;;;;;;;3.17;1.67;;;;;;;28.22;26.10;101000.97;5330239;33;31767;-86
2022/07/19 08:21:12;;;;;;;1.90;1.80;;;;;;;28.22;25.82;100996.25;5341837;33;33794;-86
2022/07/19 08:24:15;;;;;;;3.00;1.60;;;;;;;28.24;25.68;101007.06;5342714;33;34427;-86
2022/07/19 08:27:21;;;;;;;1.67;1.42;;;;;;;28.21;25.50;101004.84;5330284;33;33785;-86
2022/07/19 08:30:24;;;;;;;2.95;1.48;;;;;;;28.25;25.66;100998.47;5344242;33;33514;-86
2022/07/19 08:33:46;;;;;;;5.43;1.65;;;;;;;28.58;25.04;101000.88;5345743;33;34684;-88
2022/07/19 08:36:49;;;;;;;6.25;1.40;;;;;;;28.88;24.48;101000.75;5345922;33;34453;-90
2022/07/19 08:39:52;;;;;;;2.85;1.40;;;;;;;28.98;24.77;101002.63;5329109;33;32040;-86
2022/07/19 08:42:58;;;;;;;1.27;1.12;;;;;;;29.13;24.13;100997.03;5343180;33;33562;-87
2022/07/19 08:46:02;;;;;;;1.42;1.10;;;;;;;29.37;23.44;100999.09;5343128;33;33411;-87
2022/07/19 08:49:05;;;;;;;3.87;1.60;;;;;;;29.27;23.32;100999.16;5345548;33;34578;-87
2022/07/19 08:52:08;;;;;;;1.37;1.27;;;;;;;29.49;23.31;100990.41;5339841;33;33483;-86
2022/07/19 08:55:11;;;;;;;1.00;0.70;;;;;;;29.68;22.57;100987.75;5338686;33;33461;-86
2022/07/19 08:58:14;;;;;;;1.52;0.73;;;;;;;29.64;22.22;100993.06;5330024;33;32089;-86
2022/07/19 09:01:17;;;;;;;2.45;0.70;;;;;;;29.58;22.09;100986.72;5343309;33;33129;-87
2022/07/19 09:04:21;;;;;;;2.78;0.80;;;;;;;29.58;22.40;100981.16;5347343;33;33419;-87
2022/07/19 09:07:24;;;;;;;4.93;1.87;;;;;;;29.80;21.96;100983.47;5343928;33;33927;-87
2022/07/19 09:10:27;;;;;;;5.45;0.60;;;;;;;29.94;22.17;100971.69;5328775;33;31991;-87
2022/07/19 09:13:29;;;;;;;6.07;1.00;;;;;;;30.08;22.41;100975.44;5330020;33;32763;-87
2022/07/19 09:17:11;;;;;;;2.45;1.00;;;;;;;30.02;22.86;100985.75;5342984;33;34203;-87
2022/07/19 09:20:26;;;;;;;1.67;0.88;;;;;;;30.40;23.44;100976.78;5343253;33;33680;-87
2022/07/19 09:23:29;;;;;;;3.85;0.98;;;;;;;30.64;22.12;100968.41;5343326;33;34040;-87
2022/07/19 09:26:32;;;;;;;1.60;0.60;;;;;;;30.96;21.68;100964.94;5343843;33;33366;-87
2022/07/19 09:29:38;;;;;;;0.82;0.77;;;;;;;30.97;21.28;100968.53;5344595;33;33314;-87
2022/07/19 09:32:41;;;;;;;0.88;0.60;;;;;;;31.12;21.69;100966.38;5344227;33;34045;-87
2022/07/19 09:35:56;;;;;;;2.35;0.80;;;;;;;31.11;21.38;100966.66;5344639;33;33661;-87
2022/07/19 09:38:59;;;;;;;1.30;0.70;;;;;;;31.00;22.15;100962.37;5327220;33;32893;-87
2022/07/19 09:42:03;;;;;;;4.43;0.85;;;;;;;31.23;21.58;100967.00;5344501;33;33376;-87
2022/07/19 09:45:11;;;;;;;0.95;0.80;;;;;;;31.48;21.27;100963.03;5344404;33;34263;-87
2022/07/19 09:48:13;;;;;;;1.55;0.68;;;;;;;31.61;21.16;100955.84;5341587;33;33474;-87
2022/07/19 09:51:16;;;;;;;1.10;1.00;;;;;;;31.38;21.76;100964.00;5343779;33;33780;-87
2022/07/19 09:54:24;;;;;;;2.55;0.70;;;;;;;31.30;21.47;100956.34;5331212;33;32295;-87
2022/07/19 09:57:31;;;;;;;1.02;0.80;;;;;;;31.31;21.60;100957.97;5331747;33;32883;-89
2022/07/19 10:00:34;;;;;;;4.80;1.15;;;;;;;31.54;22.03;100956.25;5346464;33;31758;-89
2022/07/19 10:03:38;;;;;;;1.25;0.70;;;;;;;31.73;21.95;100939.47;5352971;33;34843;-88
2022/07/19 10:06:42;;;;;;;0.50;0.50;;;;;;;31.80;21.78;100942.69;5340259;33;32245;-87
2022/07/19 10:09:46;;;;;;;0.65;0.60;;;;;;;31.89;21.07;100945.59;5351491;33;34641;-87
2022/07/19 10:12:50;;;;;;;0.60;0.60;;;;;;;32.03;21.34;100946.47;5344729;33;34234;-87
2022/07/19 10:15:57;;;;;;;0.93;0.60;;;;;;;32.11;21.47;100933.75;5344244;33;33870;-87
2022/07/19 10:19:27;;;;;;;0.50;0.50;;;;;;;32.23;20.60;100934.06;5339564;33;33160;-87
2022/07/19 10:22:31;;;;;;;1.15;0.62;;;;;;;32.39;20.90;100933.78;5330681;33;32392;-87
2022/07/19 10:25:42;;;;;;;1.35;0.60;;;;;;;32.54;20.70;100933.47;5330476;33;33673;-87
2022/07/19 10:28:45;;;;;;;0.77;0.68;;;;;;;32.87;20.35;100931.31;5344537;33;34860;-87
2022/07/19 10:32:12;;;;;;;0.85;0.60;;;;;;;32.97;20.08;100927.47;5327582;33;32141;-86
2022/07/19 10:35:15;;;;;;;0.98;0.77;;;;;;;33.21;20.26;100929.16;5343228;33;33660;-87
2022/07/19 10:38:18;;;;;;;1.90;1.00;;;;;;;33.36;19.82;100925.97;5343786;33;33582;-87
2022/07/19 10:41:26;;;;;;;0.88;0.70;;;;;;;33.22;20.17;100922.44;5337349;33;34804;-87
2022/07/19 10:44:30;;;;;;;0.73;0.73;;;;;;;33.02;19.63;100927.34;5335936;33;33381;-86
2022/07/19 10:47:39;;;;;;;0.73;0.70;;;;;;;33.09;20.29;100918.56;5326189;33;33479;-85
2022/07/19 10:50:55;;;;;;;1.60;1.00;;;;;;;33.53;19.59;100912.16;5325570;33;35093;-85
2022/07/19 10:54:10;;;;;;;0.95;0.62;;;;;;;33.80;19.65;100916.72;5332322;33;33045;-86
2022/07/19 10:57:12;;;;;;;3.03;0.60;;;;;;;34.23;19.09;100920.88;5338799;33;35162;-85
2022/07/19 11:00:21;;;;;;;6.28;1.27;;;;;;;34.32;19.22;100910.53;5343182;33;33364;-88
2022/07/19 11:03:24;;;;;;;1.05;0.90;;;;;;;34.68;18.58;100915.06;5327396;33;32751;-89
2022/07/19 11:06:27;;;;;;;2.90;0.80;;;;;;;34.93;18.55;100905.88;5345591;33;33987;-86
2022/07/19 11:09:46;;;;;;;2.37;0.50;;;;;;;35.69;18.13;100898.88;5343719;33;33763;-86
2022/07/19 11:12:49;;;;;;;0.50;0.50;;;;;;;36.06;17.86;100888.81;5329115;33;32969;-86
2022/07/19 11:15:55;;;;;;;1.00;0.60;;;;;;;36.38;17.16;100891.28;5342411;33;34162;-86
2022/07/19 11:19:04;;;;;;;0.70;0.70;;;;;;;36.72;17.08;100888.25;5331225;33;31230;-86
2022/07/19 11:22:09;;;;;;;5.30;0.73;;;;;;;36.54;16.71;100884.75;5332014;33;31689;-86
2022/07/19 11:25:13;;;;;;;1.30;1.02;;;;;;;36.89;16.55;100887.28;5342464;33;34034;-86
2022/07/19 11:28:24;;;;;;;3.03;1.10;;;;;;;37.44;15.91;100883.28;5329762;33;34533;-86
2022/07/19 11:31:27;;;;;;;1.25;0.55;;;;;;;37.18;15.88;100885.56;5318911;33;32682;-86
2022/07/19 11:34:30;;;;;;;1.40;0.88;;;;;;;37.97;15.53;100871.44;5339217;33;33568;-86
2022/07/19 11:37:36;;;;;;;4.65;0.80;;;;;;;38.68;15.37;100870.06;5343552;33;34161;-86
2022/07/19 11:40:39;;;;;;;1.67;0.70;;;;;;;40.00;13.95;100864.41;5343013;33;33970;-86
2022/07/19 11:43:42;;;;;;;1.33;0.80;;;;;;;40.99;13.70;100868.63;5342060;33;33337;-87
2022/07/19 11:46:45;;;;;;;0.50;0.50;;;;;;;40.75;13.22;100866.12;5344360;33;34138;-86
2022/07/19 11:49:48;;;;;;;2.50;0.82;;;;;;;40.42;13.55;100849.66;5339892;33;34092;-86
2022/07/19 11:52:58;;;;;;;1.20;0.70;;;;;;;41.11;13.29;100842.25;5329185;33;34279;-87
2022/07/19 11:56:03;;;;;;;1.52;0.75;;;;;;;42.21;12.55;100845.34;5326070;33;33169;-87
2022/07/19 11:59:10;;;;;;;0.82;0.60;;;;;;;43.15;12.70;100836.84;5340617;33;33580;-87
2022/07/19 12:02:13;;;;;;;2.50;0.73;;;;;;;43.25;11.42;100835.31;5313290;33;32201;-87
2022/07/19 12:05:16;;;;;;;3.15;0.90;;;;;;;43.73;11.28;100828.84;5330478;33;33710;-87
2022/07/19 12:08:19;;;;;;;0.57;0.57;;;;;;;44.41;11.13;100832.16;5323731;33;32362;-87
2022/07/19 12:11:27;;;;;;;5.95;1.00;;;;;;;43.92;11.14;100835.06;5327257;33;33076;-87
2022/07/19 12:14:35;;;;;;;1.98;0.65;;;;;;;44.48;11.09;100820.84;5328285;33;33495;-86
2022/07/19 12:17:37;;;;;;;1.50;0.70;;;;;;;43.68;11.05;100827.22;5339666;33;33064;-87
2022/07/19 12:20:40;;;;;;;11.25;1.20;;;;;;;44.13;11.45;100816.56;5324535;33;31983;-87
2022/07/19 12:24:19;;;;;;;0.70;0.70;;;;;;;44.72;10.83;100813.59;5329253;33;33382;-87
2022/07/19 12:27:27;;;;;;;3.87;0.95;;;;;;;45.79;9.94;100812.94;5337932;33;34450;-87
2022/07/19 12:30:30;;;;;;;1.02;0.60;;;;;;;45.52;10.67;100807.72;5342564;33;33670;-87
2022/07/19 12:33:33;;;;;;;4.10;0.77;;;;;;;45.34;9.94;100804.81;5332254;33;31759;-87
2022/07/19 12:36:36;;;;;;;9.27;1.27;;;;;;;45.77;10.06;100801.16;5338482;33;34282;-87
2022/07/19 12:39:39;;;;;;;3.35;0.62;;;;;;;46.26;9.91;100807.97;5334308;33;33943;-86
2022/07/19 12:43:04;;;;;;;2.05;0.68;;;;;;;46.03;9.88;100812.09;5330687;33;33045;-87
2022/07/19 12:46:07;;;;;;;14.23;1.70;;;;;;;46.89;9.92;100808.91;5330433;33;33071;-87
2022/07/19 12:49:10;;;;;;;0.70;0.70;;;;;;;47.09;9.55;100809.19;5330652;33;31842;-86
2022/07/19 12:52:13;;;;;;;5.20;0.77;;;;;;;46.73;9.36;100808.62;5342968;33;33499;-87
2022/07/19 12:55:16;;;;;;;0.50;0.50;;;;;;;47.60;8.93;100801.06;5321667;33;32076;-87
2022/07/19 13:01:42;;;;;;;4.37;0.80;;;;;;;46.97;8.75;100795.41;5333754;33;33572;-86
2022/07/19 13:04:45;;;;;;;8.27;1.20;;;;;;;47.25;8.83;100791.56;5344033;33;34169;-86
2022/07/19 13:07:49;;;;;;;3.97;0.77;;;;;;;47.78;8.88;100784.59;5323767;33;218942;-86
2022/07/19 13:10:55;;;;;;;2.65;0.80;;;;;;;47.46;8.89;100777.16;5343984;33;33478;-87
2022/07/19 13:13:58;;;;;;;3.70;0.85;;;;;;;48.01;8.60;100783.13;5330426;33;32422;-86
2022/07/19 13:17:01;;;;;;;4.87;0.80;;;;;;;48.21;8.83;100777.59;5343432;33;34606;-87
2022/07/19 13:20:08;;;;;;;1.27;0.68;;;;;;;48.42;11.22;100773.66;5343300;33;34357;-87
2022/07/19 13:23:11;;;;;;;8.80;1.20;;;;;;;48.20;9.73;100771.06;5341085;33;31750;-87
2022/07/19 13:26:14;;;;;;;0.75;0.75;;;;;;;48.41;10.75;100769.16;5343359;33;33644;-86
2022/07/19 13:29:16;;;;;;;1.55;0.75;;;;;;;47.24;8.91;100767.12;5328193;33;31548;-87
2022/07/19 13:32:19;;;;;;;2.17;0.70;;;;;;;47.91;9.05;100762.81;5325245;33;32099;-86
2022/07/19 13:35:23;;;;;;;0.77;0.70;;;;;;;47.71;9.38;100764.66;5338739;33;32195;-87
2022/07/19 13:38:26;;;;;;;1.70;0.70;;;;;;;47.60;9.31;100759.06;5343613;33;34539;-86
2022/07/19 13:41:29;;;;;;;0.52;0.52;;;;;;;48.13;9.57;100756.91;5329920;33;32503;-86
2022/07/19 13:44:31;;;;;;;1.95;0.77;;;;;;;47.40;8.63;100758.87;5342008;33;33404;-87
2022/07/19 13:47:37;;;;;;;0.80;0.80;;;;;;;46.01;9.53;100754.75;5329812;33;32127;-86
2022/07/19 13:50:40;;;;;;;1.27;0.62;;;;;;;46.70;8.94;100750.41;5329934;33;32127;-91
2022/07/19 13:53:43;;;;;;;0.98;0.65;;;;;;;47.25;9.86;100745.94;5343085;33;33453;-90
2022/07/19 13:56:52;;;;;;;0.88;0.65;;;;;;;47.12;8.95;100736.28;5342951;33;33371;-87
2022/07/19 13:59:55;;;;;;;0.90;0.62;;;;;;;47.49;9.27;100738.41;5342583;33;33353;-87
2022/07/19 14:02:58;;;;;;;0.82;0.60;;;;;;;47.52;8.93;100734.69;5345047;33;33667;-87
2022/07/19 14:06:05;;;;;;;1.77;0.75;;;;;;;47.20;8.78;100732.13;5329203;33;33440;-87
2022/07/19 14:09:08;;;;;;;0.93;0.70;;;;;;;46.92;8.91;100730.28;5342012;33;33572;-86
2022/07/19 14:12:11;;;;;;;2.00;1.00;;;;;;;46.09;9.38;100727.09;5340343;33;33140;-86
2022/07/19 14:15:16;;;;;;;3.17;0.95;;;;;;;44.14;10.91;100721.69;5335270;33;32230;-86
2022/07/19 14:18:19;;;;;;;0.68;0.68;;;;;;;42.86;11.73;100722.41;5340462;33;34463;-87
2022/07/19 14:21:22;;;;;;;0.70;0.70;;;;;;;41.26;12.57;100709.72;5345818;33;34560;-87
2022/07/19 14:24:25;;;;;;;11.12;1.42;;;;;;;40.01;13.81;100702.47;5325635;33;31590;-87
2022/07/19 14:27:27;;;;;;;2.10;0.77;;;;;;;38.64;15.55;100711.53;5338249;33;33095;-87
2022/07/19 14:30:30;;;;;;;2.25;1.00;;;;;;;37.73;15.90;100712.84;5338473;33;34247;-86
2022/07/19 14:33:33;;;;;;;2.22;0.93;;;;;;;36.93;16.21;100710.59;5327045;33;32178;-86
2022/07/19 14:36:36;;;;;;;1.17;1.08;;;;;;;36.39;16.68;100703.06;5336788;33;33213;-87
2022/07/19 14:39:39;;;;;;;4.62;0.82;;;;;;;36.04;17.38;100705.34;5340942;33;33258;-86
2022/07/19 14:42:42;;;;;;;1.48;1.02;;;;;;;35.80;16.91;100698.37;5331757;33;33608;-86
2022/07/19 14:45:46;;;;;;;0.90;0.90;;;;;;;35.15;17.45;100710.94;5326644;33;32864;-86
2022/07/19 14:48:50;;;;;;;5.97;1.25;;;;;;;34.95;17.74;100706.84;5341921;33;34300;-86
2022/07/19 14:51:53;;;;;;;5.80;1.48;;;;;;;34.63;17.94;100711.06;5343016;33;33648;-86
2022/07/19 14:54:56;;;;;;;1.50;1.10;;;;;;;34.47;18.71;100703.16;5329694;33;32775;-86
2022/07/19 14:57:59;;;;;;;5.15;1.08;;;;;;;34.43;19.40;100709.72;5343918;33;34563;-86
2022/07/19 15:01:02;;;;;;;3.42;0.93;;;;;;;34.37;18.65;100706.31;5343930;33;33480;-86
2022/07/19 15:04:05;;;;;;;20.17;2.42;;;;;;;34.27;18.55;100699.06;5347651;33;34447;-86
2022/07/19 15:07:08;;;;;;;4.68;1.10;;;;;;;34.04;18.95;100690.03;5353614;33;33885;-86
2022/07/19 15:10:11;;;;;;;2.90;1.23;;;;;;;33.88;20.79;100693.63;5359082;33;34304;-86
2022/07/19 15:13:14;;;;;;;1.30;0.88;;;;;;;33.77;20.07;100688.34;5346021;33;33745;-86
2022/07/19 15:16:17;;;;;;;4.00;1.35;;;;;;;33.66;19.45;100689.00;5355908;33;34980;-87
2022/07/19 15:19:20;;;;;;;1.83;1.17;;;;;;;33.42;19.98;100679.88;5333159;33;32351;-86
2022/07/19 15:22:23;;;;;;;1.23;1.12;;;;;;;33.48;19.70;100694.50;5331683;33;31841;-86
2022/07/19 15:25:26;;;;;;;0.77;0.77;;;;;;;33.30;19.70;100690.03;5332615;33;31685;-86
2022/07/19 15:28:28;;;;;;;3.17;1.50;;;;;;;32.99;20.14;100681.69;5350873;33;33453;-86
2022/07/19 15:31:32;;;;;;;3.03;1.25;;;;;;;32.87;19.98;100680.28;5348449;33;33211;-87
2022/07/19 15:34:34;;;;;;;1.27;1.17;;;;;;;32.80;20.07;100676.34;5348826;33;33321;-87
2022/07/19 15:37:38;;;;;;;0.82;0.82;;;;;;;32.71;20.74;100671.53;5348915;33;33753;-87
2022/07/19 15:40:40;;;;;;;2.97;1.17;;;;;;;32.70;20.65;100669.91;5343561;33;33024;-87
2022/07/19 15:43:49;;;;;;;1.45;0.98;;;;;;;32.63;21.16;100666.72;5345628;33;33378;-87
2022/07/19 15:46:52;;;;;;;4.03;1.40;;;;;;;32.59;20.65;100670.47;5345190;33;33682;-87
2022/07/19 15:49:55;;;;;;;3.33;1.00;;;;;;;32.55;20.69;100667.47;5345720;33;33317;-87
2022/07/19 15:52:58;;;;;;;1.10;1.00;;;;;;;32.46;20.41;100659.06;5332547;33;33234;-86
2022/07/19 15:56:01;;;;;;;1.33;1.23;;;;;;;32.40;20.63;100646.38;5354211;33;33592;-86
2022/07/19 15:59:04;;;;;;;1.62;1.30;;;;;;;32.32;20.57;100649.09;5357324;33;34160;-86
2022/07/19 16:02:07;;;;;;;2.35;1.20;;;;;;;32.23;20.68;100654.63;5332269;33;31989;-86
2022/07/19 16:05:10;;;;;;;1.20;1.10;;;;;;;32.10;21.75;100655.53;5345465;33;33861;-87
2022/07/19 16:08:13;;;;;;;1.27;0.85;;;;;;;32.04;21.38;100649.25;5332909;33;33381;-88
2022/07/19 16:11:16;;;;;;;1.30;1.20;;;;;;;31.94;21.45;100652.25;5346079;33;34794;-89
